Time;durP1;ratioP1;P1;durP2;ratioP2;P2;SDS_P1;SDS_P2;PMS_P1;PMS_P2;Temp;Humidity;BMP_temperature;BMP_pressure;BME280_temperature;BME280_humidity;BME280_pressure;Samples;Min_cycle;Max_cycle;Signal;HPM_P1;HPM_P2
2022/04/19 00:00:37;;;;;;;;;10.50;9.00;;;;;11.74;60.14;100643.13;5074799;27;45596;-61
2022/04/19 00:03:04;;;;;;;;;13.75;7.25;;;;;11.80;59.86;100655.16;5077047;27;45567;-62
2022/04/19 00:05:30;;;;;;;;;5.25;5.00;;;;;11.79;59.50;100656.06;5078246;27;45243;-63
2022/04/19 00:07:56;;;;;;;;;8.50;6.50;;;;;11.75;59.83;100651.88;5078464;27;45317;-62
2022/04/19 00:10:21;;;;;;;;;8.75;5.75;;;;;11.74;59.71;100651.03;5077648;27;45473;-61
2022/04/19 00:12:47;;;;;;;;;6.75;6.75;;;;;11.72;59.61;100644.09;5077358;27;46415;-62
2022/04/19 00:15:15;;;;;;;;;9.25;8.00;;;;;11.75;59.65;100650.09;5077259;27;45460;-60
2022/04/19 00:17:40;;;;;;;;;6.50;5.00;;;;;11.75;59.41;100643.97;5077562;27;45317;-60
2022/04/19 00:20:06;;;;;;;;;7.25;7.25;;;;;11.73;59.57;100633.50;5077894;27;45483;-59
2022/04/19 00:22:31;;;;;;;;;7.25;7.25;;;;;11.75;59.21;100631.66;5077911;27;46106;-64
2022/04/19 00:24:57;;;;;;;;;5.50;5.00;;;;;11.78;58.84;100639.41;5077709;27;45264;-63
2022/04/19 00:27:22;;;;;;;;;5.50;4.75;;;;;11.74;59.44;100624.66;5077995;27;45638;-63
2022/04/19 00:29:49;;;;;;;;;3.75;3.50;;;;;11.72;59.14;100636.19;5077927;27;45224;-62
2022/04/19 00:32:15;;;;;;;;;7.00;5.75;;;;;11.67;59.17;100631.97;5077265;27;46486;-62
2022/04/19 00:34:40;;;;;;;;;4.50;4.50;;;;;11.64;58.90;100633.88;5077274;27;45421;-61
2022/04/19 00:37:06;;;;;;;;;6.75;5.00;;;;;11.62;58.87;100638.34;5077829;27;45210;-62
2022/04/19 00:39:31;;;;;;;;;7.25;6.00;;;;;11.61;59.27;100644.53;5077515;27;45279;-62
2022/04/19 00:41:56;;;;;;;;;6.00;6.00;;;;;11.53;58.97;100627.28;5077330;27;46151;-62
2022/04/19 00:44:25;;;;;;;;;7.00;7.00;;;;;11.50;58.99;100632.69;5077440;27;45352;-61
2022/04/19 00:46:51;;;;;;;;;9.75;8.00;;;;;11.45;59.89;100626.78;5077585;27;45369;-61
2022/04/19 00:49:19;;;;;;;;;10.75;6.25;;;;;11.46;59.10;100638.19;5077496;27;45504;-61
2022/04/19 00:51:46;;;;;;;;;6.50;5.50;;;;;11.45;59.05;100634.69;5077289;27;45397;-62
2022/04/19 00:54:15;;;;;;;;;6.75;6.75;;;;;11.40;59.23;100629.63;5076655;28;45492;-60
2022/04/19 00:56:41;;;;;;;;;6.00;6.00;;;;;11.38;59.78;100626.19;5076116;27;45412;-60
2022/04/19 00:59:10;;;;;;;;;7.75;7.75;;;;;11.35;59.44;100623.69;5077704;27;45342;-60
2022/04/19 01:01:37;;;;;;;;;7.00;5.25;;;;;11.30;59.78;100617.78;5077444;27;45416;-61
2022/04/19 01:04:03;;;;;;;;;7.00;5.25;;;;;11.27;59.68;100617.91;5077025;27;45330;-60
2022/04/19 01:06:29;;;;;;;;;11.00;8.00;;;;;11.22;59.97;100618.09;5076982;28;45431;-62
2022/04/19 01:08:54;;;;;;;;;8.00;8.00;;;;;11.21;60.15;100611.09;5077264;27;45454;-62
2022/04/19 01:14:03;;;;;;;;;10.00;8.50;;;;;11.07;60.81;100614.31;5075990;28;45363;-61
2022/04/19 01:16:29;;;;;;;;;9.50;8.25;;;;;11.05;60.36;100617.94;5076965;27;45891;-60
2022/04/19 01:18:56;;;;;;;;;11.25;9.00;;;;;11.04;60.77;100626.75;5077109;28;45570;-61
2022/04/19 01:21:21;;;;;;;;;8.00;7.00;;;;;11.00;60.17;100623.38;5076678;27;46512;-62
2022/04/19 01:23:46;;;;;;;;;7.75;7.50;;;;;10.98;60.62;100621.75;5076460;27;45165;-61
2022/04/19 01:26:12;;;;;;;;;8.50;8.00;;;;;10.94;60.62;100621.88;5076807;27;45414;-60
2022/04/19 01:28:37;;;;;;;;;8.50;7.00;;;;;10.90;60.81;100611.53;5077405;27;45472;-61
2022/04/19 01:31:03;;;;;;;;;6.00;6.00;;;;;10.86;60.34;100615.19;5076459;27;46440;-60
2022/04/19 01:33:28;;;;;;;;;7.50;6.75;;;;;10.84;60.69;100624.94;5076511;27;45169;-61
2022/04/19 01:35:54;;;;;;;;;7.25;7.25;;;;;10.78;60.55;100607.63;5076541;27;45504;-61
2022/04/19 01:38:19;;;;;;;;;7.50;6.25;;;;;10.75;61.00;100611.22;5076764;28;45508;-63
2022/04/19 01:40:44;;;;;;;;;14.00;8.75;;;;;10.72;61.04;100614.00;5076368;27;47103;-62
2022/04/19 01:43:10;;;;;;;;;6.50;6.00;;;;;10.69;60.83;100610.63;5076687;27;45307;-62
2022/04/19 01:45:35;;;;;;;;;7.25;6.00;;;;;10.63;60.57;100606.47;5076570;27;45315;-62
2022/04/19 01:48:01;;;;;;;;;11.00;7.75;;;;;10.57;60.61;100606.72;5076610;28;45218;-61
2022/04/19 01:50:28;;;;;;;;;8.25;7.00;;;;;10.53;60.68;100605.97;5076006;27;45402;-62
2022/04/19 01:52:55;;;;;;;;;8.00;7.25;;;;;10.49;60.79;100597.34;5076185;27;45349;-60
2022/04/19 01:55:21;;;;;;;;;6.50;4.00;;;;;10.49;60.59;100607.88;5076356;27;45385;-63
2022/04/19 01:57:48;;;;;;;;;7.75;7.00;;;;;10.44;60.69;100607.19;5076534;27;45468;-63
2022/04/19 02:00:15;;;;;;;;;7.00;6.00;;;;;10.39;60.66;100601.22;5074944;28;47313;-62
2022/04/19 02:02:43;;;;;;;;;7.50;5.75;;;;;10.39;60.36;100606.50;5076780;28;45273;-60
2022/04/19 02:05:08;;;;;;;;;5.50;5.50;;;;;10.35;60.16;100612.78;5075373;28;45426;-64
2022/04/19 02:07:38;;;;;;;;;8.25;7.75;;;;;10.32;60.77;100608.50;5076087;27;45266;-61
2022/04/19 02:10:04;;;;;;;;;7.25;5.75;;;;;10.29;60.34;100610.41;5075777;27;46278;-60
2022/04/19 02:12:31;;;;;;;;;8.75;5.25;;;;;10.26;60.01;100613.16;5075613;27;45278;-61
2022/04/19 02:14:57;;;;;;;;;8.00;7.00;;;;;10.22;60.26;100605.38;5075778;27;45352;-62
2022/04/19 02:17:23;;;;;;;;;5.75;5.00;;;;;10.18;60.46;100603.78;5076161;28;45398;-61
2022/04/19 02:19:58;;;;;;;;;6.50;5.50;;;;;10.20;60.11;100603.72;5075415;27;46122;-60
2022/04/19 02:22:23;;;;;;;;;6.75;6.75;;;;;10.15;60.12;100603.03;5075740;27;45300;-62
2022/04/19 02:24:49;;;;;;;;;5.00;5.00;;;;;10.14;60.05;100609.19;5075876;27;45603;-61
2022/04/19 02:27:15;;;;;;;;;5.25;4.75;;;;;10.13;60.05;100607.50;5076224;27;45588;-63
2022/04/19 02:29:40;;;;;;;;;6.25;6.25;;;;;10.08;60.35;100598.00;5076010;27;45541;-62
2022/04/19 02:32:06;;;;;;;;;3.75;3.75;;;;;10.03;60.02;100599.94;5075367;27;45412;-62
2022/04/19 02:34:32;;;;;;;;;5.25;5.25;;;;;9.96;59.91;100589.72;5075718;27;45358;-62
2022/04/19 02:36:57;;;;;;;;;3.75;3.75;;;;;10.00;59.59;100607.94;5075851;27;45314;-62
2022/04/19 02:39:23;;;;;;;;;8.75;4.50;;;;;9.96;59.40;100603.72;5075554;28;45932;-63
2022/04/19 02:41:48;;;;;;;;;6.00;6.00;;;;;9.92;59.56;100602.13;5075744;27;45322;-62
2022/04/19 02:44:14;;;;;;;;;5.00;5.00;;;;;9.86;59.71;100592.69;5076169;27;45468;-62
2022/04/19 02:46:40;;;;;;;;;6.25;5.50;;;;;9.83;59.57;100587.53;5075737;27;45545;-61
2022/04/19 02:49:05;;;;;;;;;5.00;4.75;;;;;9.84;59.49;100591.88;5075491;27;46049;-62
2022/04/19 02:51:34;;;;;;;;;6.25;5.25;;;;;9.84;59.87;100594.50;5074984;27;49109;-62
2022/04/19 02:53:59;;;;;;;;;6.25;6.25;;;;;9.83;59.52;100599.84;5075169;28;45866;-61
2022/04/19 02:56:24;;;;;;;;;7.25;6.25;;;;;9.82;59.38;100601.59;5075253;28;45251;-60
2022/04/19 02:58:50;;;;;;;;;6.00;5.50;;;;;9.75;59.30;100593.09;5074883;27;46276;-62
2022/04/19 03:01:15;;;;;;;;;4.50;3.75;;;;;9.72;59.58;100592.34;5075461;27;45359;-60
2022/04/19 03:03:41;;;;;;;;;8.50;6.75;;;;;9.65;59.80;100594.34;5075199;28;45259;-60
2022/04/19 03:06:07;;;;;;;;;6.50;6.00;;;;;9.61;60.00;100590.13;5075366;28;45648;-63
2022/04/19 03:08:34;;;;;;;;;6.00;6.00;;;;;9.57;59.71;100596.41;5074882;27;46238;-61
2022/04/19 03:11:00;;;;;;;;;6.00;6.00;;;;;9.54;59.86;100597.34;5074844;27;45174;-60
2022/04/19 03:13:27;;;;;;;;;10.00;6.75;;;;;9.49;60.05;100589.63;5074686;28;45319;-61
2022/04/19 03:15:54;;;;;;;;;7.00;5.75;;;;;9.45;59.68;100590.63;5074898;27;45557;-61
2022/04/19 03:18:19;;;;;;;;;11.25;6.75;;;;;9.41;59.66;100594.28;5074850;28;46113;-62
2022/04/19 03:20:46;;;;;;;;;6.25;6.25;;;;;9.39;59.97;100585.59;5075118;27;45248;-62
2022/04/19 03:28:40;;;;;;;;;7.25;5.25;;;;;9.32;59.67;100582.34;5074599;28;45940;-61
2022/04/19 03:31:05;;;;;;;;;5.50;5.00;;;;;9.28;59.82;100588.63;5074542;27;45390;-62
2022/04/19 03:33:32;;;;;;;;;5.50;4.00;;;;;9.19;59.47;100579.28;5075005;28;45375;-62
2022/04/19 03:35:59;;;;;;;;;5.25;5.25;;;;;9.21;59.79;100581.88;5075208;27;45515;-62
2022/04/19 03:38:24;;;;;;;;;4.00;2.75;;;;;9.18;60.22;100584.59;5078135;27;45416;-61
2022/04/19 03:40:49;;;;;;;;;7.25;4.00;;;;;9.15;59.91;100588.19;5078294;27;45240;-60
2022/04/19 03:43:15;;;;;;;;;6.25;3.50;;;;;9.11;59.74;100570.81;5078413;27;46133;-62
2022/04/19 03:45:40;;;;;;;;;6.75;3.00;;;;;9.11;60.11;100576.06;5077108;27;45338;-62
2022/04/19 03:48:06;;;;;;;;;5.50;4.00;;;;;9.13;59.83;100590.00;5076677;27;47238;-63
2022/04/19 03:50:32;;;;;;;;;9.00;5.00;;;;;9.11;60.10;100581.31;5077861;28;45362;-62
2022/04/19 03:52:57;;;;;;;;;6.25;5.25;;;;;9.09;60.12;100575.28;5078172;28;45400;-62
2022/04/19 03:55:25;;;;;;;;;3.50;3.50;;;;;9.12;60.19;100579.56;5077980;27;45349;-63
2022/04/19 03:57:51;;;;;;;;;4.00;4.00;;;;;9.11;60.59;100567.34;5077754;27;46259;-62
2022/04/19 04:00:16;;;;;;;;;6.50;4.25;;;;;9.11;60.04;100570.81;5078273;27;45348;-66
2022/04/19 04:02:42;;;;;;;;;8.00;4.25;;;;;9.12;60.63;100569.06;5078158;28;45283;-63
2022/04/19 04:05:07;;;;;;;;;3.50;3.50;;;;;9.10;60.02;100571.72;5076941;27;45538;-62
2022/04/19 04:07:38;;;;;;;;;4.50;4.00;;;;;9.07;60.37;100574.47;5077917;27;45332;-61
2022/04/19 04:10:04;;;;;;;;;6.75;5.00;;;;;9.05;59.94;100571.03;5077865;27;45404;-61
2022/04/19 04:12:29;;;;;;;;;4.75;4.75;;;;;9.01;60.45;100561.56;5077794;27;45343;-61
2022/04/19 04:14:55;;;;;;;;;6.00;4.00;;;;;9.06;60.40;100567.50;5078079;28;45386;-60
2022/04/19 04:17:20;;;;;;;;;9.25;5.75;;;;;9.07;60.93;100571.84;5077604;27;46021;-60
2022/04/19 04:19:46;;;;;;;;;5.00;4.75;;;;;9.04;60.58;100564.06;5077958;28;45414;-64
2022/04/19 04:22:11;;;;;;;;;6.00;5.00;;;;;9.04;60.88;100567.56;5078054;27;45619;-64
2022/04/19 04:24:36;;;;;;;;;6.00;4.25;;;;;9.03;60.65;100564.97;5078079;27;45230;-62
2022/04/19 04:27:02;;;;;;;;;5.25;5.00;;;;;9.06;61.12;100575.38;5077800;27;45329;-61
2022/04/19 04:29:27;;;;;;;;;7.00;7.00;;;;;9.06;61.07;100575.38;5076035;27;45463;-64
2022/04/19 04:31:53;;;;;;;;;4.00;4.00;;;;;9.05;61.00;100574.53;5077474;27;45161;-60
2022/04/19 04:34:18;;;;;;;;;3.00;3.00;;;;;9.04;61.18;100569.31;5078068;27;45198;-61
2022/04/19 04:36:44;;;;;;;;;12.75;6.00;;;;;9.06;61.21;100567.50;5077234;27;46585;-62
2022/04/19 04:39:09;;;;;;;;;4.75;4.75;;;;;9.05;61.26;100565.78;5077519;27;45280;-60
2022/04/19 04:41:34;;;;;;;;;8.75;5.00;;;;;9.06;61.33;100568.38;5077180;27;45291;-61
2022/04/19 04:44:00;;;;;;;;;10.50;6.00;;;;;9.04;61.87;100566.69;5077677;27;45431;-63
2022/04/19 04:51:53;;;;;;;;;7.00;6.50;;;;;9.10;62.20;100579.59;5077436;27;45340;-60
2022/04/19 04:54:18;;;;;;;;;11.00;7.50;;;;;9.16;63.00;100589.06;5077760;27;45635;-61
2022/04/19 04:56:44;;;;;;;;;7.00;7.00;;;;;9.15;62.84;100582.94;5076995;28;46074;-62
2022/04/19 04:59:09;;;;;;;;;5.50;5.50;;;;;9.24;62.83;100586.16;5076880;27;45317;-63
2022/04/19 05:01:34;;;;;;;;;11.25;7.00;;;;;9.24;62.97;100583.53;5077318;28;45337;-63
2022/04/19 05:04:00;;;;;;;;;6.50;3.50;;;;;9.27;63.06;100583.41;5077501;27;45469;-63
2022/04/19 05:06:25;;;;;;;;;6.50;6.00;;;;;9.30;62.79;100586.81;5076931;27;46445;-62
2022/04/19 05:08:50;;;;;;;;;6.75;6.25;;;;;9.32;62.65;100587.59;5077381;27;45195;-63
2022/04/19 05:11:16;;;;;;;;;7.00;6.00;;;;;9.28;63.20;100577.25;5059165;28;45346;-61
2022/04/19 05:13:41;;;;;;;;;9.75;5.75;;;;;9.26;63.29;100584.31;5077761;27;45355;-63
2022/04/19 05:16:08;;;;;;;;;9.25;6.75;;;;;9.30;63.35;100596.44;5077056;28;46664;-62
2022/04/19 05:18:33;;;;;;;;;5.75;5.00;;;;;9.27;63.68;100607.91;5075791;28;45373;-62
2022/04/19 05:20:59;;;;;;;;;5.25;5.25;;;;;9.23;63.96;100603.69;5077289;27;45551;-63
2022/04/19 05:23:24;;;;;;;;;6.75;5.25;;;;;9.23;64.51;100603.69;5077516;27;45393;-63
2022/04/19 05:25:49;;;;;;;;;5.25;4.75;;;;;9.19;64.17;100597.66;5077147;28;45324;-63
2022/04/19 05:28:15;;;;;;;;;9.00;7.00;;;;;9.17;64.88;100594.22;5076733;28;45382;-62
2022/04/19 05:30:40;;;;;;;;;9.00;8.25;;;;;9.18;64.73;100595.09;5076733;27;45909;-62
2022/04/19 05:33:06;;;;;;;;;7.25;6.75;;;;;9.19;64.92;100602.91;5076583;28;45409;-59
2022/04/19 05:35:32;;;;;;;;;5.75;4.50;;;;;9.20;65.16;100604.63;5076145;28;46416;-61
2022/04/19 05:37:59;;;;;;;;;8.50;7.25;;;;;9.22;65.39;100596.72;5076507;27;45387;-62
2022/04/19 05:40:25;;;;;;;;;7.50;7.50;;;;;9.16;65.52;100583.81;5076535;27;45362;-59
2022/04/19 05:42:51;;;;;;;;;8.75;7.25;;;;;9.26;65.72;100607.94;5076961;27;45234;-64
2022/04/19 05:45:17;;;;;;;;;9.50;6.75;;;;;9.13;65.76;100574.25;5076114;27;45825;-63
2022/04/19 05:47:43;;;;;;;;;8.50;6.00;;;;;9.27;66.00;100594.78;5075796;28;45337;-63
2022/04/19 05:50:09;;;;;;;;;5.25;5.25;;;;;9.30;65.80;100596.44;5075700;27;45452;-62
2022/04/19 05:52:35;;;;;;;;;10.25;7.00;;;;;9.34;66.08;100600.66;5076458;28;45425;-62
2022/04/19 05:55:00;;;;;;;;;8.00;6.00;;;;;9.30;66.06;100592.06;5075944;27;45472;-63
2022/04/19 05:57:25;;;;;;;;;6.50;6.50;;;;;9.35;65.93;100595.38;5075958;28;45413;-61
2022/04/19 05:59:51;;;;;;;;;8.00;6.00;;;;;9.43;65.94;100596.88;5075692;27;45366;-62
2022/04/19 06:05:00;;;;;;;;;10.00;8.50;;;;;9.49;65.58;100589.63;5075584;27;45847;-62
2022/04/19 06:07:27;;;;;;;;;9.25;7.25;;;;;9.56;66.40;100594.69;5076046;27;45459;-61
2022/04/19 06:09:53;;;;;;;;;7.50;7.50;;;;;9.54;65.85;100586.84;5076517;28;45334;-62
2022/04/19 06:12:19;;;;;;;;;13.75;8.75;;;;;9.60;66.11;100589.25;5075782;28;45589;-63
2022/04/19 06:14:44;;;;;;;;;9.50;8.00;;;;;9.57;65.76;100585.88;5074220;27;46538;-63
2022/04/19 06:17:15;;;;;;;;;12.00;9.75;;;;;9.65;66.19;100594.34;5075630;27;45754;-62
2022/04/19 06:19:41;;;;;;;;;8.50;8.50;;;;;9.69;66.57;100590.69;5075646;27;45954;-63
2022/04/19 06:22:07;;;;;;;;;8.50;6.25;;;;;9.76;66.42;100597.44;5075635;27;45337;-63
2022/04/19 06:24:32;;;;;;;;;10.00;9.75;;;;;9.82;66.53;100604.22;5087371;27;46363;-62
2022/04/19 06:26:58;;;;;;;;;10.00;8.50;;;;;9.88;66.81;100595.28;5075083;27;45345;-62
2022/04/19 06:29:24;;;;;;;;;9.25;8.50;;;;;9.92;66.38;100595.09;5075600;27;45286;-61
2022/04/19 06:31:49;;;;;;;;;10.00;10.00;;;;;9.99;66.12;100592.22;5077412;27;45718;-62
2022/04/19 06:34:16;;;;;;;;;13.75;11.50;;;;;10.11;66.32;100601.44;5074678;27;46122;-63
2022/04/19 06:36:42;;;;;;;;;8.25;7.75;;;;;10.15;66.18;100590.75;5075013;27;45378;-63
2022/04/19 06:39:07;;;;;;;;;13.50;11.50;;;;;10.25;66.07;100593.88;5075198;27;45401;-63
2022/04/19 06:41:33;;;;;;;;;7.75;6.25;;;;;10.30;65.92;100597.19;5075224;27;45499;-63
2022/04/19 06:43:59;;;;;;;;;7.00;6.75;;;;;10.34;65.61;100595.31;5074726;27;46520;-63
2022/04/19 06:46:25;;;;;;;;;9.50;7.50;;;;;10.34;65.72;100593.50;5074851;27;45509;-62
2022/04/19 06:48:56;;;;;;;;;14.75;9.75;;;;;10.30;66.08;100591.09;5083411;27;45376;-71
2022/04/19 06:51:23;;;;;;;;;15.75;10.50;;;;;10.27;65.88;100592.03;5113735;27;45347;-72
2022/04/19 06:53:49;;;;;;;;;9.75;8.00;;;;;10.25;66.06;100593.88;5095590;27;45737;-72
2022/04/19 06:56:15;;;;;;;;;14.50;12.25;;;;;10.25;65.88;100593.03;5087964;27;45536;-73
2022/04/19 06:58:41;;;;;;;;;13.75;12.75;;;;;10.26;66.01;100592.94;5074949;27;45551;-72
2022/04/19 07:01:07;;;;;;;;;12.75;12.00;;;;;10.24;66.81;100581.63;5075271;28;45570;-71
2022/04/19 07:03:33;;;;;;;;;11.00;10.25;;;;;10.31;65.82;100582.28;5075274;27;46245;-72
2022/04/19 07:05:59;;;;;;;;;15.25;11.75;;;;;10.33;65.92;100585.69;5075972;28;45218;-70
2022/04/19 07:08:24;;;;;;;;;11.75;10.00;;;;;10.36;65.58;100585.59;5075870;27;45338;-70
2022/04/19 07:10:50;;;;;;;;;14.75;10.25;;;;;10.34;65.04;100575.09;5074227;28;45239;-70
2022/04/19 07:13:15;;;;;;;;;17.50;14.25;;;;;10.43;64.84;100592.34;5079148;27;46253;-72
2022/04/19 07:15:41;;;;;;;;;13.25;10.75;;;;;10.50;65.01;100592.94;5078855;27;45350;-67
2022/04/19 07:18:06;;;;;;;;;14.50;11.00;;;;;10.51;64.98;100597.28;5078395;27;45441;-66
2022/04/19 07:28:43;;;;;;;;;12.50;10.25;;;;;10.68;64.84;100599.25;5078066;27;45283;-66
2022/04/19 07:31:09;;;;;;;;;12.50;9.00;;;;;10.77;64.42;100595.41;5078380;27;45584;-66
2022/04/19 07:33:39;;;;;;;;;12.50;9.25;;;;;10.85;64.23;100585.41;5078048;27;45322;-64
2022/04/19 07:36:08;;;;;;;;;12.00;10.50;;;;;11.00;63.33;100578.63;5078001;27;45497;-68
2022/04/19 07:38:33;;;;;;;;;14.25;13.25;;;;;11.18;63.32;100578.81;5078139;27;45268;-66
2022/04/19 07:40:59;;;;;;;;;12.00;8.50;;;;;11.34;62.83;100586.88;5078419;27;45420;-67
2022/04/19 07:43:24;;;;;;;;;14.00;10.75;;;;;11.47;61.89;100590.69;5077767;27;46454;-66
2022/04/19 07:45:50;;;;;;;;;10.25;10.25;;;;;11.64;62.01;100578.53;5077915;27;45255;-66
2022/04/19 07:48:16;;;;;;;;;17.50;10.50;;;;;11.76;60.85;100591.19;5078103;27;45427;-66
2022/04/19 07:50:42;;;;;;;;;9.00;8.25;;;;;11.83;60.54;100574.19;5078466;27;45353;-65
2022/04/19 07:53:08;;;;;;;;;10.75;8.00;;;;;11.95;59.88;100580.66;5077602;27;45615;-65
2022/04/19 07:55:34;;;;;;;;;13.75;9.00;;;;;12.09;59.87;100582.69;5092910;27;45924;-66
2022/04/19 07:57:59;;;;;;;;;11.50;9.25;;;;;12.27;60.21;100590.66;5078063;27;45267;-66
2022/04/19 08:00:27;;;;;;;;;16.00;12.25;;;;;12.46;59.25;100585.38;5077927;27;45325;-66
2022/04/19 08:02:54;;;;;;;;;11.50;11.50;;;;;12.64;59.08;100578.34;5077266;27;46428;-66
2022/04/19 08:05:19;;;;;;;;;8.00;7.00;;;;;12.82;58.26;100586.31;5077440;27;45363;-67
2022/04/19 08:07:48;;;;;;;;;12.00;7.50;;;;;12.88;58.09;100579.84;5077727;27;45225;-66
2022/04/19 08:10:13;;;;;;;;;16.50;11.00;;;;;12.92;58.24;100579.63;5077688;27;45536;-66
2022/04/19 08:12:38;;;;;;;;;13.50;10.75;;;;;12.97;57.59;100585.53;5077277;27;46060;-66
2022/04/19 08:15:04;;;;;;;;;14.25;11.50;;;;;12.97;57.41;100574.97;5093301;27;45390;-65
2022/04/19 08:17:32;;;;;;;;;12.00;11.25;;;;;13.01;57.24;100586.22;5077947;27;45389;-66
2022/04/19 08:19:57;;;;;;;;;10.50;8.25;;;;;12.94;56.39;100575.13;5078021;27;45253;-67
2022/04/19 08:22:23;;;;;;;;;11.25;10.00;;;;;12.99;56.76;100583.69;5092461;27;48028;-67
2022/04/19 08:24:49;;;;;;;;;11.00;11.00;;;;;13.03;56.53;100578.25;5077437;27;45202;-66
2022/04/19 08:27:16;;;;;;;;;15.50;10.50;;;;;13.11;55.95;100583.97;5077180;27;47063;-66
2022/04/19 08:29:43;;;;;;;;;15.50;11.25;;;;;13.13;55.48;100582.13;5077589;27;45694;-65
2022/04/19 08:32:08;;;;;;;;;7.00;7.00;;;;;13.18;55.75;100580.09;5076684;27;45585;-66
2022/04/19 08:34:33;;;;;;;;;11.00;8.50;;;;;13.28;55.16;100577.84;5076480;27;45472;-65
2022/04/19 08:36:59;;;;;;;;;9.50;9.50;;;;;13.32;55.02;100575.88;5077211;28;45308;-64
2022/04/19 08:39:24;;;;;;;;;10.00;9.75;;;;;13.40;54.79;100581.63;5077225;27;45290;-66
2022/04/19 08:41:49;;;;;;;;;11.75;11.00;;;;;13.47;54.96;100579.56;5076758;27;45551;-68
2022/04/19 08:44:15;;;;;;;;;12.50;12.50;;;;;13.63;54.52;100577.81;5076572;27;45429;-67
2022/04/19 08:46:42;;;;;;;;;13.75;9.00;;;;;13.73;53.68;100581.69;5077067;27;45268;-66
2022/04/19 08:49:09;;;;;;;;;12.25;11.00;;;;;13.76;53.15;100567.41;5076897;27;45452;-66
2022/04/19 08:51:36;;;;;;;;;11.00;8.50;;;;;13.84;52.81;100567.88;5076659;27;46553;-65
2022/04/19 08:59:31;;;;;;;;;10.25;8.50;;;;;14.19;51.97;100563.38;5077055;28;45307;-66
2022/04/19 09:01:57;;;;;;;;;10.00;10.00;;;;;14.35;51.17;100568.69;5076394;27;45380;-67
2022/04/19 09:04:24;;;;;;;;;11.25;8.50;;;;;14.46;50.98;100566.28;5075044;27;45319;-64
2022/04/19 09:06:51;;;;;;;;;10.25;8.75;;;;;14.51;49.75;100564.22;5076760;27;45805;-65
2022/04/19 09:09:21;;;;;;;;;13.25;10.75;;;;;14.62;50.35;100553.00;5076327;28;45442;-68
2022/04/19 09:11:48;;;;;;;;;16.75;9.75;;;;;14.73;49.55;100563.84;5076335;27;45393;-66
2022/04/19 09:14:13;;;;;;;;;11.00;10.00;;;;;14.79;49.43;100556.50;5075881;27;45445;-65
2022/04/19 09:16:38;;;;;;;;;8.25;6.50;;;;;14.87;49.17;100548.97;5076223;27;45335;-67
2022/04/19 09:19:04;;;;;;;;;9.25;8.50;;;;;14.99;49.09;100553.56;5076891;27;45359;-65
2022/04/19 09:21:40;;;;;;;;;10.25;6.25;;;;;15.05;48.07;100547.03;5076300;27;46062;-65
2022/04/19 09:24:26;;;;;;;;;9.25;9.25;;;;;15.15;49.14;100550.81;5076653;27;45449;-66
2022/04/19 09:26:52;;;;;;;;;11.00;7.75;;;;;15.35;48.63;100556.72;5076081;28;45505;-67
2022/04/19 09:29:22;;;;;;;;;12.50;10.50;;;;;15.53;49.05;100551.25;5076436;27;45240;-66
2022/04/19 09:31:51;;;;;;;;;8.75;8.75;;;;;15.76;47.87;100550.69;5075724;27;45380;-67
2022/04/19 09:34:33;;;;;;;;;8.00;8.00;;;;;15.89;47.90;100548.13;5074988;27;45484;-66
2022/04/19 09:37:07;;;;;;;;;10.50;8.00;;;;;16.02;47.50;100557.97;5074675;27;45347;-66
2022/04/19 09:39:34;;;;;;;;;15.00;14.50;;;;;16.13;47.38;100536.91;5076488;28;45585;-66
2022/04/19 09:42:04;;;;;;;;;10.00;10.00;;;;;16.40;47.00;100551.13;5075759;27;46338;-66
2022/04/19 09:44:29;;;;;;;;;10.00;10.00;;;;;16.59;46.86;100541.03;5075811;27;45332;-65
2022/04/19 09:47:04;;;;;;;;;11.00;11.00;;;;;16.68;46.33;100542.19;5075669;27;45343;-67
2022/04/19 09:49:48;;;;;;;;;11.00;11.00;;;;;16.83;46.04;100534.16;5074682;27;45270;-65
2022/04/19 09:52:22;;;;;;;;;10.75;10.50;;;;;16.75;45.99;100524.91;5075207;27;46470;-67
2022/04/19 09:55:08;;;;;;;;;13.50;10.50;;;;;16.93;46.01;100543.19;5075503;28;45957;-66
2022/04/19 09:57:36;;;;;;;;;13.00;11.25;;;;;17.04;45.78;100545.19;5075985;27;45247;-68
2022/04/19 10:00:10;;;;;;;;;12.75;10.50;;;;;17.21;45.55;100533.41;5075708;28;45577;-65
2022/04/19 10:08:21;;;;;;;;;14.00;14.00;;;;;17.29;44.54;100528.41;5075786;27;45257;-66
2022/04/19 10:10:51;;;;;;;;;15.50;15.00;;;;;17.28;44.56;100521.38;5075247;27;45411;-66
2022/04/19 10:13:20;;;;;;;;;11.25;10.00;;;;;17.25;45.03;100520.72;5075148;27;46159;-67
2022/04/19 10:15:46;;;;;;;;;52.00;41.00;;;;;17.28;45.31;100518.72;5075119;27;45464;-67
2022/04/19 10:18:12;;;;;;;;;11.50;9.75;;;;;17.27;45.31;100509.06;5075340;27;45413;-65
2022/04/19 10:20:59;;;;;;;;;12.00;10.50;;;;;17.30;44.89;100498.19;5075881;27;45621;-67
2022/04/19 10:23:36;;;;;;;;;19.50;12.75;;;;;17.36;44.92;100497.78;5074916;27;46423;-67
2022/04/19 10:26:22;;;;;;;;;10.25;10.25;;;;;17.54;44.68;100496.59;5075072;27;45383;-66
2022/04/19 10:28:50;;;;;;;;;12.25;11.25;;;;;17.69;44.60;100494.63;5075052;27;45359;-65
2022/04/19 10:31:31;;;;;;;;;16.75;13.50;;;;;17.94;44.35;100499.88;5090499;27;45652;-66
2022/04/19 10:34:05;;;;;;;;;14.00;14.00;;;;;18.18;42.88;100504.41;5074496;27;46563;-67
2022/04/19 10:36:39;;;;;;;;;11.50;11.50;;;;;18.20;43.13;100501.63;5074870;28;45354;-65
2022/04/19 10:39:16;;;;;;;;;14.00;13.00;;;;;18.28;42.50;100498.41;5075048;27;45333;-67
2022/04/19 10:42:00;;;;;;;;;15.00;14.00;;;;;18.30;43.32;100499.97;5074620;27;45335;-66
2022/04/19 10:44:38;;;;;;;;;12.00;10.50;;;;;18.38;43.74;100489.59;5074449;27;45330;-67
2022/04/19 10:47:14;;;;;;;;;11.25;9.50;;;;;18.47;43.33;100488.09;5089910;27;45707;-67
2022/04/19 10:49:59;;;;;;;;;10.50;10.50;;;;;18.48;43.11;100497.78;5090400;27;45509;-66
2022/04/19 10:52:40;;;;;;;;;14.50;14.25;;;;;18.58;42.96;100489.94;5074336;27;45625;-66
2022/04/19 10:55:06;;;;;;;;;12.00;12.00;;;;;18.65;42.72;100479.66;5074736;27;46076;-66
2022/04/19 11:00:27;;;;;;;;;13.75;12.50;;;;;18.49;42.63;100475.50;5074607;28;45260;-66
2022/04/19 11:03:00;;;;;;;;;15.00;13.50;;;;;18.62;42.73;100474.56;5074751;27;45553;-66
2022/04/19 11:05:50;;;;;;;;;14.50;12.50;;;;;18.64;42.48;100484.16;5073265;27;45456;-65
2022/04/19 11:08:25;;;;;;;;;19.00;14.25;;;;;18.65;42.96;100480.53;5074586;27;45400;-66
2022/04/19 11:10:56;;;;;;;;;15.75;14.50;;;;;18.65;42.43;100472.53;5090186;27;45382;-68
2022/04/19 11:13:23;;;;;;;;;14.50;11.50;;;;;18.67;42.33;100469.72;5074604;27;45581;-65
2022/04/19 11:15:58;;;;;;;;;12.50;11.00;;;;;18.66;42.46;100465.38;5074162;27;46402;-66
2022/04/19 11:18:26;;;;;;;;;19.50;14.50;;;;;18.70;42.57;100466.84;5073960;27;45496;-67
2022/04/19 11:20:53;;;;;;;;;12.75;12.75;;;;;18.76;42.75;100461.03;5074241;27;45356;-68
2022/04/19 11:23:21;;;;;;;;;10.25;10.25;;;;;18.98;42.72;100459.41;5074392;27;45238;-66
2022/04/19 11:25:48;;;;;;;;;17.00;15.25;;;;;19.16;41.83;100457.13;5074288;27;46204;-65
2022/04/19 11:28:28;;;;;;;;;14.25;13.00;;;;;19.18;42.30;100465.03;5074433;27;45401;-67
2022/04/19 11:30:57;;;;;;;;;19.75;15.50;;;;;19.22;41.83;100458.47;5074382;27;45341;-66
2022/04/19 11:33:23;;;;;;;;;15.25;15.00;;;;;19.31;41.95;100456.88;5090073;27;46028;-66
2022/04/19 11:36:13;;;;;;;;;16.75;16.25;;;;;19.45;41.89;100456.63;5073608;28;46395;-66
2022/04/19 11:38:42;;;;;;;;;19.00;15.00;;;;;19.59;41.77;100462.69;5074118;27;45315;-66
2022/04/19 11:46:44;;;;;;;;;22.75;19.75;;;;;19.77;41.30;100453.22;5073825;28;45195;-66
2022/04/19 11:49:10;;;;;;;;;18.25;18.25;;;;;19.88;41.03;100462.16;5074237;27;45388;-67
2022/04/19 11:51:37;;;;;;;;;20.75;20.50;;;;;19.90;41.54;100452.25;5073505;27;45214;-68
2022/04/19 11:54:04;;;;;;;;;17.50;16.25;;;;;19.96;40.63;100452.56;5073898;27;45537;-66
2022/04/19 11:56:31;;;;;;;;;23.50;18.25;;;;;20.02;40.89;100456.56;5073268;27;46474;-66
2022/04/19 11:59:01;;;;;;;;;24.00;23.00;;;;;20.05;40.44;100447.44;5076026;27;45470;-67
2022/04/19 12:01:28;;;;;;;;;16.50;15.25;;;;;20.14;40.83;100457.34;5077302;27;45214;-64
2022/04/19 12:03:54;;;;;;;;;21.00;17.25;;;;;20.27;40.45;100462.53;5076966;28;45465;-66
2022/04/19 12:06:20;;;;;;;;;18.75;16.75;;;;;20.41;40.69;100448.88;5076823;27;45541;-67